createdAt,value
2018-04-10T00:01:58.090Z,29.23
2018-04-10T00:04:26.012Z,29.30
2018-04-10T00:06:53.931Z,27.20
2018-04-10T00:09:21.868Z,26.97
2018-04-10T00:11:49.796Z,28.20
2018-04-10T00:14:17.813Z,28.10
2018-04-10T00:16:45.823Z,31.30
2018-04-10T00:19:13.791Z,30.07
2018-04-10T00:21:43.483Z,31.47
2018-04-10T00:24:11.476Z,29.67
2018-04-10T00:26:39.478Z,31.20
2018-04-10T00:29:08.263Z,33.07
2018-04-10T00:31:36.251Z,32.37
2018-04-10T00:34:05.251Z,33.33
2018-04-10T00:36:33.230Z,33.37
2018-04-10T00:39:01.203Z,31.20
2018-04-10T00:41:29.198Z,35.50
2018-04-10T00:43:57.183Z,36.73
2018-04-10T00:46:25.183Z,34.97
2018-04-10T00:48:53.157Z,37.20
2018-04-10T00:51:21.143Z,37.53
2018-04-10T00:53:49.136Z,36.77
2018-04-10T00:56:17.895Z,36.87
2018-04-10T00:58:46.536Z,39.13
2018-04-10T01:01:14.504Z,38.17
2018-04-10T01:03:42.485Z,38.30
2018-04-10T01:06:10.467Z,38.33
2018-04-10T01:08:38.468Z,41.20
2018-04-10T01:11:07.216Z,42.10
2018-04-10T01:13:35.231Z,40.27
2018-04-10T01:16:03.224Z,42.60
2018-04-10T01:18:31.219Z,43.63
2018-04-10T01:20:59.908Z,44.90
2018-04-10T01:23:27.903Z,44.60
2018-04-10T01:25:56.702Z,43.13
2018-04-10T01:28:24.703Z,45.97
2018-04-10T01:30:52.675Z,44.10
2018-04-10T01:33:20.660Z,45.30
2018-04-10T01:35:48.979Z,44.23
2018-04-10T01:38:17.077Z,46.90
2018-04-10T01:40:45.054Z,46.40
2018-04-10T01:43:13.040Z,45.43
2018-04-10T01:45:41.007Z,47.87
2018-04-10T01:48:08.999Z,46.57
2018-04-10T01:50:36.980Z,45.57
2018-04-10T01:53:05.779Z,45.80
2018-04-10T01:55:33.766Z,47.83
2018-04-10T01:58:01.759Z,47.77
2018-04-10T02:00:29.743Z,45.87
2018-04-10T02:02:57.735Z,45.40
2018-04-10T02:05:25.719Z,47.87
2018-04-10T02:07:53.882Z,47.87
2018-04-10T02:10:21.879Z,45.17
2018-04-10T02:21:22.811Z,46.90
2018-04-10T02:23:50.823Z,44.43
2018-04-10T02:26:18.817Z,46.97
2018-04-10T02:28:46.799Z,48.90
2018-04-10T02:31:14.792Z,47.30
2018-04-10T02:33:42.799Z,46.50
2018-04-10T02:36:10.787Z,48.10
2018-04-10T02:38:38.774Z,47.80
2018-04-10T02:41:06.769Z,46.00
2018-04-10T02:43:34.747Z,43.63
2018-04-10T02:46:02.831Z,49.23
2018-04-10T02:48:30.824Z,48.23
2018-04-10T02:50:58.840Z,50.10
2018-04-10T02:53:26.827Z,47.07
2018-04-10T02:55:54.819Z,47.10
2018-04-10T02:58:22.824Z,49.00
2018-04-10T03:00:50.802Z,47.40
2018-04-10T03:03:19.168Z,46.20
2018-04-10T03:05:47.169Z,45.20
2018-04-10T03:08:15.161Z,45.33
2018-04-10T03:10:44.059Z,45.60
2018-04-10T03:13:13.110Z,48.93
2018-04-10T03:15:41.091Z,48.40
2018-04-10T03:18:09.082Z,47.67
2018-04-10T03:20:37.076Z,52.07
2018-04-10T03:23:05.076Z,46.23
2018-04-10T03:25:33.063Z,47.33
2018-04-10T03:28:01.047Z,45.87
2018-04-10T03:30:29.033Z,44.83
2018-04-10T03:32:57.047Z,46.50
2018-04-10T03:35:25.110Z,43.93
2018-04-10T03:37:53.109Z,43.80
2018-04-10T03:40:21.713Z,45.13
2018-04-10T03:42:49.862Z,48.17
2018-04-10T03:45:17.871Z,48.13
2018-04-10T03:47:45.856Z,49.00
2018-04-10T03:50:13.869Z,50.47
2018-04-10T03:52:41.875Z,54.63
2018-04-10T03:55:10.756Z,53.33
2018-04-10T03:57:38.792Z,50.13
2018-04-10T04:00:06.799Z,53.30
2018-04-10T04:02:34.805Z,48.40
2018-04-10T04:05:02.961Z,49.50
2018-04-10T04:07:30.948Z,53.73
2018-04-10T04:09:58.949Z,48.27
2018-04-10T04:12:27.231Z,51.30
2018-04-10T04:14:55.224Z,53.23
2018-04-10T04:17:36.114Z,50.77
2018-04-10T04:20:16.021Z,50.57
2018-04-10T04:22:43.999Z,53.23
2018-04-10T04:25:12.752Z,56.20
2018-04-10T04:27:40.744Z,56.90
2018-04-10T04:30:09.271Z,51.77
2018-04-10T04:32:37.247Z,52.53
2018-04-10T04:35:05.283Z,61.53
2018-04-10T04:37:33.343Z,55.90
2018-04-10T04:40:01.339Z,49.23
2018-04-10T04:42:29.331Z,58.03
2018-04-10T04:44:57.331Z,53.30
2018-04-10T04:47:25.349Z,57.17
2018-04-10T04:49:53.348Z,54.70
2018-04-10T04:52:21.350Z,53.90
2018-04-10T04:54:49.361Z,47.10
2018-04-10T04:57:17.340Z,48.03
2018-04-10T04:59:45.337Z,49.30
2018-04-10T05:02:13.328Z,49.03
2018-04-10T05:07:41.418Z,46.97
2018-04-10T05:10:15.382Z,44.90
2018-04-10T05:12:49.128Z,45.47
2018-04-10T05:15:23.090Z,41.80
2018-04-10T05:17:57.708Z,42.87
2018-04-10T05:20:31.699Z,48.50
2018-04-10T05:23:05.704Z,43.63
2018-04-10T05:25:39.707Z,42.57
2018-04-10T05:28:13.824Z,48.33
2018-04-10T05:30:47.740Z,45.33
2018-04-10T05:33:22.089Z,46.73
2018-04-10T05:35:56.010Z,42.67
2018-04-10T05:38:30.019Z,43.00
2018-04-10T05:41:03.683Z,43.50
2018-04-10T05:43:37.462Z,41.33
2018-04-10T05:46:11.100Z,41.10
2018-04-10T05:48:44.779Z,41.33
2018-04-10T05:51:19.394Z,40.10
2018-04-10T05:53:53.490Z,39.40
2018-04-10T05:56:27.239Z,40.70
2018-04-10T05:59:01.103Z,42.30
2018-04-10T06:01:34.778Z,41.47
2018-04-10T06:04:08.468Z,43.53
2018-04-10T06:06:42.247Z,40.17
2018-04-10T06:09:15.984Z,37.63
2018-04-10T06:11:49.862Z,42.47
2018-04-10T06:14:23.475Z,38.23
2018-04-10T06:16:57.235Z,36.50
2018-04-10T06:19:30.979Z,36.73
2018-04-10T06:22:04.790Z,40.63
2018-04-10T06:24:39.940Z,36.17
2018-04-10T06:27:13.502Z,33.57
2018-04-10T06:29:47.380Z,36.53
2018-04-10T06:32:21.204Z,35.60
2018-04-10T06:34:55.047Z,34.90
2018-04-10T06:37:29.406Z,33.90
2018-04-10T06:40:03.401Z,32.53
2018-04-10T06:42:37.532Z,37.13
2018-04-10T06:45:11.624Z,35.40
2018-04-10T06:47:45.480Z,33.03
2018-04-10T06:50:19.016Z,34.13
2018-04-10T06:52:52.627Z,34.43
2018-04-10T06:55:26.128Z,35.00
2018-04-10T06:57:59.937Z,36.00
2018-04-10T07:00:33.634Z,35.00
2018-04-10T07:03:07.250Z,35.67
2018-04-10T07:05:40.904Z,36.10
2018-04-10T07:08:14.746Z,35.23
2018-04-10T07:10:48.731Z,34.17
2018-04-10T07:13:22.564Z,35.50
2018-04-10T07:15:56.127Z,33.40
2018-04-10T07:18:29.835Z,32.67
2018-04-10T07:21:03.466Z,35.40
2018-04-10T07:23:37.084Z,36.10
2018-04-10T07:26:10.927Z,35.73
2018-04-10T07:28:44.715Z,34.73
2018-04-10T07:31:18.307Z,37.40
2018-04-10T07:33:52.471Z,36.07
2018-04-10T07:36:26.060Z,36.10
2018-04-10T07:38:59.707Z,37.10
2018-04-10T07:41:33.496Z,35.23
2018-04-10T07:44:07.375Z,35.13
2018-04-10T07:46:41.568Z,39.03
2018-04-10T07:49:15.533Z,39.00
2018-04-10T07:51:49.424Z,37.03
2018-04-10T07:54:23.500Z,39.07
2018-04-10T07:56:57.729Z,36.80
2018-04-10T07:59:31.500Z,39.00
2018-04-10T08:02:05.340Z,42.77
2018-04-10T08:04:39.119Z,41.87
2018-04-10T08:07:12.797Z,34.97
2018-04-10T08:09:46.578Z,31.40
2018-04-10T08:12:20.192Z,33.13
2018-04-10T08:14:53.835Z,35.97
2018-04-10T08:17:27.504Z,35.27
2018-04-10T08:20:01.275Z,38.53
2018-04-10T08:22:35.019Z,34.97
2018-04-10T08:25:08.755Z,34.17
2018-04-10T08:27:42.455Z,33.90
2018-04-10T08:30:16.367Z,35.53
2018-04-10T08:32:50.100Z,35.00
2018-04-10T08:35:23.933Z,32.27
2018-04-10T08:37:57.637Z,35.60
2018-04-10T08:40:31.292Z,35.93
2018-04-10T08:43:05.139Z,33.53
2018-04-10T08:45:39.192Z,31.33
2018-04-10T08:48:12.964Z,33.90
2018-04-10T08:50:46.599Z,31.07
2018-04-10T08:53:21.332Z,30.83
2018-04-10T08:55:55.475Z,29.47
2018-04-10T08:58:29.426Z,29.00
2018-04-10T09:01:03.479Z,31.77
2018-04-10T09:03:37.524Z,25.83
2018-04-10T09:06:11.476Z,29.67
2018-04-10T09:08:45.719Z,28.63
2018-04-10T09:11:19.840Z,28.00
2018-04-10T09:13:54.155Z,27.23
2018-04-10T09:16:27.843Z,28.10
2018-04-10T09:19:01.470Z,28.90
2018-04-10T09:21:35.451Z,27.20
2018-04-10T09:24:09.103Z,29.97
2018-04-10T09:26:42.710Z,28.80
2018-04-10T09:29:16.245Z,31.03
2018-04-10T09:31:50.629Z,29.50
2018-04-10T09:34:24.380Z,29.63
2018-04-10T09:36:58.155Z,27.50
2018-04-10T09:39:31.780Z,28.50
2018-04-10T09:42:05.684Z,30.47
2018-04-10T09:44:39.237Z,33.93
2018-04-10T09:47:12.863Z,30.23
2018-04-10T09:49:47.244Z,28.47
2018-04-10T09:52:22.144Z,29.00
2018-04-10T09:54:57.150Z,26.80
2018-04-10T09:57:31.404Z,28.17
2018-04-10T10:00:05.167Z,26.20
2018-04-10T10:02:39.114Z,26.53
2018-04-10T10:05:12.879Z,27.37
2018-04-10T10:07:47.667Z,27.47
2018-04-10T10:10:22.075Z,26.93
2018-04-10T10:12:55.949Z,26.43
2018-04-10T10:15:29.992Z,25.87
2018-04-10T10:18:04.924Z,26.70
2018-04-10T10:20:39.104Z,25.23
2018-04-10T10:23:13.337Z,23.67
2018-04-10T10:25:47.072Z,24.77
2018-04-10T10:28:20.920Z,23.33
2018-04-10T10:30:54.668Z,24.67
2018-04-10T10:33:28.366Z,25.00
2018-04-10T10:36:01.852Z,24.00
2018-04-10T10:38:35.672Z,23.90
2018-04-10T10:41:09.311Z,25.07
2018-04-10T10:43:43.112Z,22.77
2018-04-10T10:46:16.959Z,24.33
2018-04-10T10:48:50.633Z,25.27
2018-04-10T10:51:24.198Z,27.27
2018-04-10T10:53:57.748Z,24.17
2018-04-10T10:56:31.482Z,23.73
2018-04-10T10:59:05.106Z,22.90
2018-04-10T11:01:39.011Z,22.47
2018-04-10T11:04:12.731Z,21.73
2018-04-10T11:06:46.558Z,22.97
2018-04-10T11:09:20.604Z,24.80
2018-04-10T11:11:54.678Z,25.17
2018-04-10T11:14:28.544Z,23.03
2018-04-10T11:17:02.552Z,21.40
2018-04-10T11:19:36.540Z,27.37
2018-04-10T11:22:10.201Z,21.57
2018-04-10T11:24:43.999Z,22.17
2018-04-10T11:27:17.680Z,21.97
2018-04-10T11:29:51.438Z,21.13
2018-04-10T11:32:25.271Z,19.90
2018-04-10T11:34:59.239Z,20.90
2018-04-10T11:37:32.804Z,22.30
2018-04-10T11:40:06.511Z,23.10
2018-04-10T11:42:40.391Z,23.47
2018-04-10T11:45:14.329Z,22.47
2018-04-10T11:47:47.858Z,22.20
2018-04-10T11:50:21.590Z,21.77
2018-04-10T11:52:55.202Z,20.60
2018-04-10T11:55:28.708Z,22.37
2018-04-10T11:58:02.459Z,19.73
2018-04-10T12:00:36.311Z,21.03
2018-04-10T12:03:10.066Z,22.17
2018-04-10T12:05:44.596Z,20.60
2018-04-10T12:08:18.390Z,21.53
2018-04-10T12:10:52.192Z,22.17
2018-04-10T12:13:26.067Z,22.63
2018-04-10T12:15:59.703Z,22.37
2018-04-10T12:18:33.716Z,21.67
2018-04-10T12:21:07.615Z,22.37
2018-04-10T12:23:41.679Z,22.77
2018-04-10T12:26:15.879Z,22.97
2018-04-10T12:28:50.135Z,21.73
2018-04-10T12:31:24.216Z,23.17
2018-04-10T12:33:58.095Z,20.83
2018-04-10T12:36:32.473Z,20.40
2018-04-10T12:39:06.625Z,25.20
2018-04-10T12:41:41.013Z,22.23
2018-04-10T12:44:15.398Z,20.60
2018-04-10T12:46:49.620Z,20.17
2018-04-10T12:49:23.451Z,27.33
2018-04-10T12:51:57.167Z,23.90
2018-04-10T12:54:30.955Z,24.13
2018-04-10T12:57:04.470Z,23.03
2018-04-10T12:59:38.353Z,20.50
2018-04-10T13:02:11.933Z,18.37
2018-04-10T13:04:45.614Z,20.30
2018-04-10T13:07:19.294Z,24.50
2018-04-10T13:09:52.961Z,27.83
2018-04-10T13:12:26.743Z,39.20
2018-04-10T13:15:00.520Z,49.57
2018-04-10T13:17:34.282Z,56.63
2018-04-10T13:20:07.891Z,37.30
2018-04-10T13:22:41.699Z,45.30
2018-04-10T13:25:15.518Z,29.63
2018-04-10T13:27:49.532Z,36.80
2018-04-10T13:30:23.715Z,26.40
2018-04-10T13:32:57.713Z,26.50
2018-04-10T13:35:31.596Z,27.10
2018-04-10T13:38:05.678Z,22.07
2018-04-10T13:40:40.104Z,22.43
2018-04-10T13:43:14.893Z,20.97
2018-04-10T13:45:48.911Z,19.67
2018-04-10T13:48:22.763Z,20.10
2018-04-10T13:50:56.667Z,19.00
2018-04-10T13:53:30.660Z,23.70
2018-04-10T13:56:04.460Z,18.10
2018-04-10T13:58:38.359Z,21.90
2018-04-10T14:01:12.205Z,19.83
2018-04-10T14:03:46.044Z,16.60
2018-04-10T14:06:19.846Z,19.47
2018-04-10T14:08:53.855Z,19.97
2018-04-10T14:11:27.448Z,39.10
2018-04-10T14:14:01.218Z,50.53
2018-04-10T14:16:35.075Z,28.63
2018-04-10T14:19:08.916Z,46.90
2018-04-10T14:21:42.755Z,30.90
2018-04-10T14:24:16.427Z,47.43
2018-04-10T14:26:50.315Z,32.90
2018-04-10T14:29:24.033Z,38.60
2018-04-10T14:31:57.755Z,26.77
2018-04-10T14:34:31.643Z,20.23
2018-04-10T14:37:05.279Z,18.67
2018-04-10T14:39:39.088Z,19.00
2018-04-10T14:42:12.903Z,19.70
2018-04-10T14:44:46.948Z,19.07
2018-04-10T14:47:20.804Z,20.40
2018-04-10T14:49:54.520Z,19.80
2018-04-10T14:52:28.188Z,19.70
2018-04-10T14:55:02.525Z,16.97
2018-04-10T14:57:36.566Z,17.83
2018-04-10T15:00:10.548Z,17.40
2018-04-10T15:02:44.314Z,21.10
2018-04-10T15:05:18.511Z,21.17
2018-04-10T15:07:52.289Z,25.03
2018-04-10T15:10:26.548Z,17.17
2018-04-10T15:13:00.265Z,19.50
2018-04-10T15:15:34.090Z,24.20
2018-04-10T15:18:07.866Z,21.23
2018-04-10T15:20:41.514Z,22.10
2018-04-10T15:23:15.172Z,18.43
2018-04-10T15:25:48.921Z,22.93
2018-04-10T15:28:22.607Z,29.97
2018-04-10T15:30:56.448Z,18.07
2018-04-10T15:33:30.047Z,21.10
2018-04-10T15:36:03.630Z,23.03
2018-04-10T15:38:37.296Z,20.00
2018-04-10T15:41:11.134Z,18.83
2018-04-10T15:43:44.984Z,23.20
2018-04-10T15:46:18.619Z,23.73
2018-04-10T15:48:53.092Z,23.20
2018-04-10T15:51:26.832Z,23.30
2018-04-10T15:54:00.716Z,19.07
2018-04-10T15:56:34.664Z,24.37
2018-04-10T15:59:08.943Z,19.50
2018-04-10T16:01:43.264Z,20.90
2018-04-10T16:04:17.113Z,17.30
2018-04-10T16:06:50.951Z,17.37
2018-04-10T16:09:25.299Z,19.20
2018-04-10T16:11:58.826Z,23.23
2018-04-10T16:14:32.629Z,20.90
2018-04-10T16:17:07.000Z,18.83
2018-04-10T16:19:40.706Z,19.00
2018-04-10T16:22:14.535Z,17.67
2018-04-10T16:24:48.363Z,17.40
2018-04-10T16:27:22.567Z,24.60
2018-04-10T16:29:56.552Z,19.97
2018-04-10T16:32:30.323Z,16.37
2018-04-10T16:35:05.184Z,18.03
2018-04-10T16:37:38.963Z,19.57
2018-04-10T16:40:14.991Z,20.83
2018-04-10T16:42:48.823Z,20.03
2018-04-10T16:45:22.351Z,20.40
2018-04-10T16:47:56.301Z,18.70
2018-04-10T16:50:30.011Z,21.50
2018-04-10T16:53:04.412Z,21.60
2018-04-10T16:55:37.880Z,18.03
2018-04-10T16:58:12.283Z,23.13
2018-04-10T17:00:40.269Z,19.03
2018-04-10T17:03:08.247Z,21.63
2018-04-10T17:05:36.228Z,19.60
2018-04-10T17:08:04.212Z,16.00
2018-04-10T17:10:32.219Z,20.50
2018-04-10T17:13:00.796Z,15.47
2018-04-10T17:15:28.885Z,15.80
2018-04-10T17:17:57.509Z,17.40
2018-04-10T17:20:25.713Z,17.27
2018-04-10T17:22:53.741Z,16.90
2018-04-10T17:25:21.755Z,15.40
2018-04-10T17:27:49.758Z,18.57
2018-04-10T17:30:17.759Z,15.50
2018-04-10T17:32:45.765Z,14.50
2018-04-10T17:35:13.752Z,17.67
2018-04-10T17:37:42.156Z,21.70
2018-04-10T17:40:10.144Z,16.37
2018-04-10T17:42:38.153Z,17.30
2018-04-10T17:45:06.153Z,17.20
2018-04-10T17:47:34.163Z,16.00
2018-04-10T17:50:02.191Z,15.17
2018-04-10T17:52:30.182Z,17.80
2018-04-10T17:54:58.235Z,17.90
2018-04-10T17:57:26.336Z,18.90
2018-04-10T17:59:54.352Z,14.37
2018-04-10T18:02:22.329Z,15.77
2018-04-10T18:04:50.400Z,16.50
2018-04-10T18:07:19.213Z,14.33
2018-04-10T18:09:47.218Z,16.23
2018-04-10T18:12:15.199Z,14.90
2018-04-10T18:14:43.179Z,16.87
2018-04-10T18:17:11.164Z,15.80
2018-04-10T18:19:39.369Z,17.27
2018-04-10T18:22:07.364Z,16.30
2018-04-10T18:24:35.336Z,20.40
2018-04-10T18:27:03.316Z,17.07
2018-04-10T18:29:31.367Z,17.33
2018-04-10T18:31:59.343Z,15.87
2018-04-10T18:34:27.331Z,15.40
2018-04-10T18:36:55.335Z,14.43
2018-04-10T18:39:23.314Z,13.17
2018-04-10T18:41:51.325Z,18.33
2018-04-10T18:44:19.300Z,16.63
2018-04-10T18:46:47.682Z,15.00
2018-04-10T18:49:15.667Z,14.10
2018-04-10T18:51:43.666Z,15.70
2018-04-10T18:54:11.804Z,15.87
2018-04-10T18:56:39.784Z,12.57
2018-04-10T18:59:07.831Z,13.33
2018-04-10T19:01:35.853Z,15.17
2018-04-10T19:04:03.841Z,15.93
2018-04-10T19:06:31.820Z,14.50
2018-04-10T19:08:59.965Z,13.93
2018-04-10T19:11:28.005Z,12.60
2018-04-10T19:13:56.059Z,18.57
2018-04-10T19:16:44.665Z,18.43
2018-04-10T19:19:12.701Z,12.37
2018-04-10T19:21:40.724Z,13.73
2018-04-10T19:24:08.782Z,16.40
2018-04-10T19:26:36.782Z,14.13
2018-04-10T19:29:04.768Z,12.30
2018-04-10T19:31:32.791Z,71.40
2018-04-10T19:34:00.812Z,34.00
2018-04-10T19:36:28.848Z,14.47
2018-04-10T19:38:56.979Z,11.73
2018-04-10T19:41:25.005Z,11.97
2018-04-10T19:43:53.159Z,18.40
2018-04-10T19:46:21.874Z,13.43
2018-04-10T19:48:49.856Z,15.20
2018-04-10T19:51:17.847Z,13.90
2018-04-10T19:53:45.847Z,13.83
2018-04-10T19:56:13.856Z,12.73
2018-04-10T19:58:43.029Z,17.37
2018-04-10T20:01:11.013Z,9.53
2018-04-10T20:03:38.989Z,16.10
2018-04-10T20:06:07.263Z,14.47
2018-04-10T20:08:35.439Z,18.27
2018-04-10T20:11:03.499Z,11.73
2018-04-10T20:13:31.503Z,13.30
2018-04-10T20:15:59.496Z,11.40
2018-04-10T20:18:27.501Z,12.90
2018-04-10T20:20:55.464Z,11.87
2018-04-10T20:23:23.646Z,14.67
2018-04-10T20:25:52.405Z,16.23
2018-04-10T20:28:20.387Z,13.40
2018-04-10T20:30:48.368Z,16.43
2018-04-10T20:33:16.364Z,13.50
2018-04-10T20:35:44.372Z,9.80
2018-04-10T20:38:12.371Z,12.60
2018-04-10T20:40:40.398Z,14.30
2018-04-10T20:43:08.616Z,12.47
2018-04-10T20:45:36.617Z,14.60
2018-04-10T20:48:05.092Z,16.67
2018-04-10T20:50:33.074Z,13.93
2018-04-10T20:53:01.133Z,11.10
2018-04-10T20:55:29.140Z,17.63
2018-04-10T20:57:57.149Z,14.50
2018-04-10T21:00:25.140Z,11.23
2018-04-10T21:02:53.193Z,13.80
2018-04-10T21:05:21.185Z,9.37
2018-04-10T21:07:49.164Z,11.83
2018-04-10T21:10:17.287Z,16.33
2018-04-10T21:12:45.284Z,10.33
2018-04-10T21:15:13.287Z,13.27
2018-04-10T21:17:41.284Z,10.13
2018-04-10T21:20:09.334Z,11.03
2018-04-10T21:22:37.778Z,15.23
2018-04-10T21:25:05.902Z,9.53
2018-04-10T21:27:33.912Z,15.60
2018-04-10T21:30:01.982Z,8.20
2018-04-10T21:32:29.975Z,13.23
2018-04-10T21:34:58.028Z,8.73
2018-04-10T21:37:26.125Z,16.83
2018-04-10T21:39:54.178Z,15.43
2018-04-10T21:42:22.172Z,9.33
2018-04-10T21:44:50.156Z,9.20
2018-04-10T21:47:18.186Z,12.57
2018-04-10T21:49:46.253Z,9.40
2018-04-10T21:52:14.285Z,11.60
2018-04-10T21:54:42.284Z,7.17
2018-04-10T21:57:10.340Z,9.03
2018-04-10T21:59:38.375Z,10.47
2018-04-10T22:02:06.972Z,9.77
2018-04-10T22:04:35.736Z,11.10
2018-04-10T22:07:03.795Z,14.97
2018-04-10T22:09:31.976Z,11.60
2018-04-10T22:11:59.980Z,8.33
2018-04-10T22:14:28.020Z,11.47
2018-04-10T22:16:56.006Z,10.60
2018-04-10T22:19:24.031Z,11.97
2018-04-10T22:21:52.135Z,9.10
2018-04-10T22:24:20.132Z,8.80
2018-04-10T22:26:48.143Z,7.03
2018-04-10T22:29:16.438Z,10.63
2018-04-10T22:31:44.527Z,13.20
2018-04-10T22:34:12.488Z,12.67
2018-04-10T22:36:40.510Z,12.73
2018-04-10T22:39:08.497Z,11.63
2018-04-10T22:41:36.477Z,13.33
2018-04-10T22:44:04.488Z,11.73
2018-04-10T22:46:32.592Z,17.23
2018-04-10T22:49:00.692Z,9.20
2018-04-10T22:51:28.666Z,7.37
2018-04-10T22:53:56.660Z,21.93
2018-04-10T22:56:24.660Z,13.13
2018-04-10T22:58:52.648Z,13.40
2018-04-10T23:01:20.657Z,7.97
2018-04-10T23:03:48.733Z,9.60
2018-04-10T23:06:17.544Z,6.20
2018-04-10T23:08:45.562Z,13.57
2018-04-10T23:11:13.789Z,16.67
2018-04-10T23:13:41.781Z,12.33
2018-04-10T23:16:09.771Z,11.60
2018-04-10T23:18:37.814Z,9.87
2018-04-10T23:21:05.889Z,8.23
2018-04-10T23:23:34.034Z,6.93
2018-04-10T23:26:02.025Z,7.33
2018-04-10T23:28:30.095Z,10.27
2018-04-10T23:30:58.091Z,13.37
2018-04-10T23:33:26.108Z,7.33
2018-04-10T23:35:54.141Z,12.20
2018-04-10T23:38:22.169Z,8.20
2018-04-10T23:40:50.154Z,9.33
2018-04-10T23:43:18.160Z,6.73
2018-04-10T23:45:46.157Z,10.10
2018-04-10T23:48:14.171Z,12.33
2018-04-10T23:50:42.156Z,9.27
2018-04-10T23:53:10.217Z,14.27
2018-04-10T23:55:38.280Z,8.60
2018-04-10T23:58:06.264Z,14.47
